Time;durP1;ratioP1;P1;durP2;ratioP2;P2;SDS_P1;SDS_P2;PMS_P1;PMS_P2;Temp;Humidity;BMP_temperature;BMP_pressure;BME280_temperature;BME280_humidity;BME280_pressure;Samples;Min_cycle;Max_cycle;Signal;HPM_P1;HPM_P2
2022/04/20 05:04:09;;;;;;;;;;;;;;;3.76;56.70;97825.25;4750424;30;19934;-71
2022/04/20 05:06:41;;;;;;;;;;;;;;;3.83;56.58;97831.16;4737213;30;21584;-73
2022/04/20 05:09:44;;;;;;;;;;;;;;;3.85;56.74;97840.59;4752923;30;20046;-74
2022/04/20 05:12:13;;;;;;;;;;;;;;;3.97;56.48;97836.81;4757968;30;19930;-71
2022/04/20 05:14:42;;;;;;;;;;;;;;;4.02;56.61;97834.94;4766122;30;20534;-72
2022/04/20 05:17:13;;;;;;;;;;;;;;;3.93;56.63;97831.97;4773905;29;19930;-74
2022/04/20 05:19:44;;;;;;;;;;;;;;;3.98;56.29;97828.47;4811365;29;19932;-77
2022/04/20 05:22:47;;;;;;;;;;;;;;;4.36;55.69;97839.69;4825165;29;19950;-76
2022/04/20 05:25:44;;;;;;;;;;;;;;;4.20;55.75;97826.28;4818819;29;20387;-75
2022/04/20 05:28:13;;;;;;;;;;;;;;;4.18;56.09;97836.50;4830420;29;19929;-72
2022/04/20 05:30:43;;;;;;;;;;;;;;;4.14;56.18;97835.44;4881967;29;19927;-73
2022/04/20 05:33:12;;;;;;;;;;;;;;;4.31;56.24;97832.44;4927259;29;19927;-72
2022/04/20 05:35:41;;;;;;;;;;;;;;;4.40;55.75;97840.78;4901549;29;19931;-76
2022/04/20 05:44:16;;;;;;;;;;;;;;;4.51;54.98;97836.19;4911112;29;20021;-74
2022/04/20 05:46:47;;;;;;;;;;;;;;;4.69;54.80;97833.69;4935895;29;19926;-74
2022/04/20 05:49:19;;;;;;;;;;;;;;;4.96;53.74;97827.13;4901617;29;19927;-75
2022/04/20 05:51:51;;;;;;;;;;;;;;;4.96;54.33;97827.94;4932926;29;19937;-75
2022/04/20 05:54:20;;;;;;;;;;;;;;;4.99;53.92;97831.94;4921159;29;19934;-74
2022/04/20 05:56:49;;;;;;;;;;;;;;;5.16;53.16;97826.19;4922866;29;20306;-75
2022/04/20 05:59:18;;;;;;;;;;;;;;;4.98;53.68;97833.84;4918918;29;20010;-74
2022/04/20 06:01:47;;;;;;;;;;;;;;;5.21;53.73;97835.06;4941885;29;20497;-73
2022/04/20 06:04:21;;;;;;;;;;;;;;;5.17;53.59;97828.63;4917745;29;19927;-75
2022/04/20 06:07:16;;;;;;;;;;;;;;;5.61;52.94;97832.41;4916693;29;20393;-75
2022/04/20 06:09:54;;;;;;;;;;;;;;;5.80;51.75;97825.22;4956376;28;19958;-75
2022/04/20 06:12:46;;;;;;;;;;;;;;;5.64;51.97;97827.22;4972717;28;19930;-75
2022/04/20 06:15:41;;;;;;;;;;;;;;;5.70;52.11;97833.38;4973820;28;20077;-75
2022/04/20 06:18:18;;;;;;;;;;;;;;;5.60;52.49;97826.19;4967129;28;19926;-75
2022/04/20 06:21:09;;;;;;;;;;;;;;;5.81;52.56;97821.47;4987094;28;19933;-74
2022/04/20 06:23:59;;;;;;;;;;;;;;;6.37;51.11;97814.75;4959121;28;20408;-75
2022/04/20 06:30:10;;;;;;;;;;;;;;;6.44;50.81;97823.31;4970351;28;20020;-75
2022/04/20 06:32:55;;;;;;;;;;;;;;;6.49;50.88;97815.94;4943287;28;19926;-75
2022/04/20 06:35:51;;;;;;;;;;;;;;;6.67;50.08;97821.72;4940556;28;20308;-75
2022/04/20 06:38:38;;;;;;;;;;;;;;;6.85;50.42;97822.84;4968566;28;19967;-75
2022/04/20 06:41:14;;;;;;;;;;;;;;;7.21;48.81;97815.09;4983836;28;19926;-75
2022/04/20 06:43:57;;;;;;;;;;;;;;;7.43;47.64;97822.59;4970282;28;19927;-75
2022/04/20 06:46:51;;;;;;;;;;;;;;;7.37;48.39;97819.19;4966021;28;19926;-75
2022/04/20 06:49:40;;;;;;;;;;;;;;;7.50;47.40;97821.13;4972374;28;19926;-75
2022/04/20 07:00:45;;;;;;;;;;;;;;;7.96;47.47;97820.41;4962161;28;19937;-75
2022/04/20 07:03:40;;;;;;;;;;;;;;;8.23;46.04;97816.97;4968514;28;19933;-75
2022/04/20 07:06:20;;;;;;;;;;;;;;;8.01;45.78;97817.63;5000487;23;19933;-75
2022/04/20 07:09:09;;;;;;;;;;;;;;;8.26;46.16;97812.88;4990588;28;19925;-75
2022/04/20 07:11:53;;;;;;;;;;;;;;;8.54;45.28;97811.03;4960849;28;20269;-74
2022/04/20 07:14:22;;;;;;;;;;;;;;;8.54;44.90;97808.31;4971833;28;19929;-75
2022/04/20 07:16:52;;;;;;;;;;;;;;;8.55;45.46;97804.50;4973240;28;19930;-75
2022/04/20 07:19:27;;;;;;;;;;;;;;;8.80;45.11;97809.44;4971125;28;19930;-75
2022/04/20 07:22:46;;;;;;;;;;;;;;;9.09;43.74;97803.66;4958250;28;19930;-75
2022/04/20 07:26:01;;;;;;;;;;;;;;;9.29;43.08;97815.16;4987370;28;19930;-75
2022/04/20 07:29:14;;;;;;;;;;;;;;;9.26;42.01;97807.63;4988614;28;19926;-76
2022/04/20 07:32:03;;;;;;;;;;;;;;;9.25;42.15;97811.47;4961687;28;20155;-75
2022/04/20 07:34:48;;;;;;;;;;;;;;;9.49;41.65;97808.50;4946305;28;19989;-75
2022/04/20 07:37:35;;;;;;;;;;;;;;;9.42;40.33;97801.56;4953740;28;19929;-76
2022/04/20 07:40:22;;;;;;;;;;;;;;;9.56;40.87;97800.72;4989443;28;20085;-75
2022/04/20 07:43:03;;;;;;;;;;;;;;;9.86;38.54;97802.72;4967745;28;19933;-75
2022/04/20 07:45:53;;;;;;;;;;;;;;;9.83;38.76;97797.09;4975538;28;19925;-75
2022/04/20 07:48:46;;;;;;;;;;;;;;;9.87;39.70;97795.38;4954325;28;19948;-75
2022/04/20 07:51:36;;;;;;;;;;;;;;;10.11;39.23;97803.97;4978692;28;19930;-75
2022/04/20 07:54:28;;;;;;;;;;;;;;;10.03;39.17;97793.09;4965915;28;20018;-75
2022/04/20 07:57:42;;;;;;;;;;;;;;;9.96;39.41;97799.75;4976901;28;19929;-76
2022/04/20 08:00:30;;;;;;;;;;;;;;;10.46;38.99;97790.63;4984972;28;19957;-75
2022/04/20 08:03:31;;;;;;;;;;;;;;;10.71;38.39;97791.84;4933502;28;19984;-75
2022/04/20 08:06:04;;;;;;;;;;;;;;;10.96;37.89;97798.44;4951612;28;19940;-76
2022/04/20 08:08:38;;;;;;;;;;;;;;;11.07;37.51;97799.75;4979588;28;19933;-76
2022/04/20 08:11:09;;;;;;;;;;;;;;;11.20;36.02;97803.47;4951628;28;20020;-75
2022/04/20 08:16:37;;;;;;;;;;;;;;;10.87;34.89;97798.44;4965718;28;19926;-75
2022/04/20 08:19:23;;;;;;;;;;;;;;;10.79;35.33;97791.03;4969628;28;20010;-75
2022/04/20 08:22:37;;;;;;;;;;;;;;;10.91;36.19;97795.88;4960945;28;19980;-75
2022/04/20 08:26:18;;;;;;;;;;;;;;;11.19;35.94;97791.78;4963513;28;19934;-75
2022/04/20 08:28:48;;;;;;;;;;;;;;;11.41;33.55;97782.69;4983503;28;19934;-75
2022/04/20 08:31:16;;;;;;;;;;;;;;;11.65;32.96;97784.91;4965796;28;20475;-75
2022/04/20 08:33:44;;;;;;;;;;;;;;;11.66;31.64;97789.22;4966406;28;19930;-75
2022/04/20 08:36:12;;;;;;;;;;;;;;;11.55;32.51;97777.88;4958034;28;19926;-75
2022/04/20 08:38:41;;;;;;;;;;;;;;;11.63;32.50;97783.63;4966637;28;19941;-75
2022/04/20 08:41:09;;;;;;;;;;;;;;;12.05;31.51;97768.41;4964612;28;19926;-75
2022/04/20 08:43:37;;;;;;;;;;;;;;;11.95;32.79;97777.72;4960044;28;20372;-75
2022/04/20 08:46:08;;;;;;;;;;;;;;;12.13;32.14;97773.00;4977527;28;19941;-73
2022/04/20 08:48:38;;;;;;;;;;;;;;;12.26;31.35;97777.47;4966301;28;19934;-73
2022/04/20 08:51:09;;;;;;;;;;;;;;;12.22;31.95;97779.25;4962078;28;19962;-73
2022/04/20 08:53:37;;;;;;;;;;;;;;;12.31;32.70;97771.06;4961647;28;19964;-74
2022/04/20 08:58:52;;;;;;;;;;;;;;;11.93;29.60;97758.19;4963601;28;19926;-73
2022/04/20 09:01:50;;;;;;;;;;;;;;;12.18;30.33;97761.94;4966576;28;19981;-73
2022/04/20 09:04:19;;;;;;;;;;;;;;;12.62;28.94;97754.38;4966808;28;19926;-73
2022/04/20 09:06:48;;;;;;;;;;;;;;;12.49;29.86;97758.94;4954104;28;19940;-73
2022/04/20 09:09:18;;;;;;;;;;;;;;;12.45;28.70;97759.94;4948678;28;19929;-73
2022/04/20 09:11:45;;;;;;;;;;;;;;;12.19;28.66;97763.53;4985573;28;19926;-74
2022/04/20 09:14:14;;;;;;;;;;;;;;;12.30;27.87;97753.91;4984302;28;19996;-73
2022/04/20 09:16:42;;;;;;;;;;;;;;;12.57;28.06;97757.34;4972112;28;20159;-73
2022/04/20 09:19:11;;;;;;;;;;;;;;;12.49;28.64;97752.72;4962857;28;19932;-73
2022/04/20 09:21:41;;;;;;;;;;;;;;;12.40;28.29;97752.72;4969358;28;19957;-74
2022/04/20 09:24:09;;;;;;;;;;;;;;;12.41;28.12;97750.81;4963335;28;19925;-73
2022/04/20 09:26:42;;;;;;;;;;;;;;;12.69;27.75;97749.25;4970767;28;19941;-73
2022/04/20 09:29:10;;;;;;;;;;;;;;;12.44;26.22;97753.69;4994703;28;19926;-74
2022/04/20 09:31:41;;;;;;;;;;;;;;;12.17;27.42;97735.03;4980855;28;19926;-73
2022/04/20 09:34:09;;;;;;;;;;;;;;;12.53;26.17;97735.38;4996519;28;19925;-72
2022/04/20 09:36:42;;;;;;;;;;;;;;;12.88;23.15;97732.44;4938527;28;19933;-74
2022/04/20 09:39:14;;;;;;;;;;;;;;;13.09;22.18;97746.91;4986080;28;19957;-73
2022/04/20 09:41:58;;;;;;;;;;;;;;;13.11;24.18;97738.41;4990010;28;20250;-73
2022/04/20 09:44:27;;;;;;;;;;;;;;;13.36;25.86;97722.97;4986430;28;19926;-74
2022/04/20 09:49:52;;;;;;;;;;;;;;;13.43;24.21;97734.19;4948670;28;19937;-74
2022/04/20 09:52:21;;;;;;;;;;;;;;;13.35;25.03;97733.09;4984059;28;19926;-73
2022/04/20 09:54:51;;;;;;;;;;;;;;;13.19;24.36;97729.34;4992928;28;19926;-73
2022/04/20 09:57:19;;;;;;;;;;;;;;;13.28;25.23;97729.31;4975928;28;19925;-73
2022/04/20 09:59:56;;;;;;;;;;;;;;;13.34;24.64;97727.97;4990355;28;19980;-73
2022/04/20 10:02:44;;;;;;;;;;;;;;;13.49;24.61;97726.59;4975151;28;20016;-73
2022/04/20 10:05:12;;;;;;;;;;;;;;;13.77;24.42;97726.78;4984201;28;19945;-73
2022/04/20 10:08:33;;;;;;;;;;;;;;;13.71;24.95;97723.47;4973164;28;19974;-74
2022/04/20 10:11:01;;;;;;;;;;;;;;;13.65;26.26;97724.81;4966485;28;19926;-74
2022/04/20 10:13:29;;;;;;;;;;;;;;;13.79;25.93;97733.50;4972323;28;19926;-74
2022/04/20 10:16:10;;;;;;;;;;;;;;;13.88;25.87;97722.50;4973816;28;19994;-73
2022/04/20 10:18:39;;;;;;;;;;;;;;;13.73;24.14;97718.47;4967880;28;19927;-74
2022/04/20 10:21:11;;;;;;;;;;;;;;;13.56;25.13;97705.78;4972370;28;19930;-73
2022/04/20 10:26:33;;;;;;;;;;;;;;;13.80;26.38;97704.28;4970972;28;19926;-75
2022/04/20 10:29:03;;;;;;;;;;;;;;;13.84;25.29;97695.06;4970955;28;19937;-74
2022/04/20 10:31:32;;;;;;;;;;;;;;;14.01;25.72;97688.63;4965151;28;19932;-74
2022/04/20 10:34:04;;;;;;;;;;;;;;;14.18;25.37;97695.03;4967564;28;19930;-74
2022/04/20 10:36:55;;;;;;;;;;;;;;;14.22;25.24;97693.19;4967755;28;19933;-73
2022/04/20 10:39:26;;;;;;;;;;;;;;;14.01;24.73;97685.91;4970545;28;19936;-74
2022/04/20 10:42:33;;;;;;;;;;;;;;;13.76;25.08;97684.25;4970709;28;19934;-74
2022/04/20 10:45:03;;;;;;;;;;;;;;;13.59;25.24;97683.28;4958808;28;19933;-74
2022/04/20 10:47:32;;;;;;;;;;;;;;;13.75;25.06;97674.47;4972465;28;19980;-73
2022/04/20 10:50:13;;;;;;;;;;;;;;;13.72;25.96;97670.47;4967001;28;19926;-74
2022/04/20 10:52:41;;;;;;;;;;;;;;;13.62;25.61;97657.25;4966186;28;19977;-74
2022/04/20 10:55:13;;;;;;;;;;;;;;;13.84;25.88;97658.78;4966808;28;20023;-74
2022/04/20 10:57:42;;;;;;;;;;;;;;;13.83;26.15;97660.72;4965564;28;19926;-73
2022/04/20 11:00:33;;;;;;;;;;;;;;;13.91;26.75;97653.56;4953887;28;19934;-74
2022/04/20 11:03:01;;;;;;;;;;;;;;;14.15;26.02;97641.84;4971472;28;19980;-74
2022/04/20 11:05:29;;;;;;;;;;;;;;;14.39;25.27;97649.28;4988265;28;19926;-74
2022/04/20 11:08:04;;;;;;;;;;;;;;;14.51;24.63;97652.00;4985660;28;19927;-74
2022/04/20 11:10:34;;;;;;;;;;;;;;;14.45;25.90;97647.91;4970256;28;19933;-74
2022/04/20 11:19:27;;;;;;;;;;;;;;;14.36;25.60;97630.81;4971896;28;19926;-74
2022/04/20 11:22:28;;;;;;;;;;;;;;;14.67;25.90;97628.31;4971384;28;19926;-73
2022/04/20 11:25:23;;;;;;;;;;;;;;;15.06;24.63;97617.69;4975476;28;19942;-74
2022/04/20 11:28:18;;;;;;;;;;;;;;;14.85;24.60;97617.88;4976968;28;19926;-75
2022/04/20 11:30:46;;;;;;;;;;;;;;;14.71;24.78;97622.16;4970943;28;19932;-73
2022/04/20 11:33:15;;;;;;;;;;;;;;;14.76;24.71;97621.91;4975074;28;19926;-74
2022/04/20 11:35:56;;;;;;;;;;;;;;;14.90;24.67;97614.13;4974821;28;19937;-73
2022/04/20 11:38:35;;;;;;;;;;;;;;;14.78;25.18;97612.22;4975831;28;19985;-73
2022/04/20 11:41:04;;;;;;;;;;;;;;;14.95;24.69;97616.59;4969764;28;19932;-74
2022/04/20 11:43:36;;;;;;;;;;;;;;;14.48;24.80;97613.63;4954832;28;20021;-74
2022/04/20 11:46:11;;;;;;;;;;;;;;;14.26;25.48;97609.41;4971137;28;19937;-73
2022/04/20 11:48:48;;;;;;;;;;;;;;;14.62;25.38;97608.59;4973102;28;19930;-75
2022/04/20 11:51:19;;;;;;;;;;;;;;;14.90;25.90;97593.03;4974170;28;20041;-74
2022/04/20 11:53:48;;;;;;;;;;;;;;;15.15;25.89;97588.25;4965720;28;19930;-74
2022/04/20 11:56:33;;;;;;;;;;;;;;;15.34;24.87;97589.53;4955878;28;19926;-74
2022/04/20 11:59:03;;;;;;;;;;;;;;;15.22;24.38;97595.88;4983143;28;19934;-74
2022/04/20 12:01:31;;;;;;;;;;;;;;;14.98;25.94;97594.03;4968971;28;20372;-74
2022/04/20 12:04:00;;;;;;;;;;;;;;;15.05;26.31;97596.97;4950370;28;19962;-75
2022/04/20 12:06:28;;;;;;;;;;;;;;;15.03;26.06;97591.06;4968857;28;19934;-74
2022/04/20 12:08:56;;;;;;;;;;;;;;;15.11;24.80;97579.16;4965078;28;19926;-74
2022/04/20 12:11:25;;;;;;;;;;;;;;;15.24;24.90;97584.59;4951046;28;19926;-75
2022/04/20 12:13:54;;;;;;;;;;;;;;;15.28;25.68;97575.31;4966740;28;19930;-74
2022/04/20 12:16:25;;;;;;;;;;;;;;;15.60;24.83;97586.31;4969864;28;19968;-75
2022/04/20 12:18:53;;;;;;;;;;;;;;;15.53;23.95;97575.97;4964485;28;19930;-74
2022/04/20 12:21:43;;;;;;;;;;;;;;;15.68;23.53;97571.69;4949372;28;19926;-74
2022/04/20 12:24:12;;;;;;;;;;;;;;;15.79;23.75;97561.00;4961653;28;19960;-74
2022/04/20 12:26:41;;;;;;;;;;;;;;;15.90;23.81;97564.78;4962762;28;19933;-75
2022/04/20 12:29:10;;;;;;;;;;;;;;;15.98;23.55;97552.88;4953784;28;19930;-74
2022/04/20 12:31:43;;;;;;;;;;;;;;;15.92;24.87;97557.00;4969674;28;19926;-74
2022/04/20 12:34:12;;;;;;;;;;;;;;;15.82;24.59;97555.63;4953889;28;19930;-73
2022/04/20 12:36:51;;;;;;;;;;;;;;;15.96;24.52;97557.91;4970851;28;19926;-74
2022/04/20 12:39:26;;;;;;;;;;;;;;;15.75;22.08;97554.63;4954761;28;19965;-74
2022/04/20 12:41:54;;;;;;;;;;;;;;;15.70;23.33;97553.75;4970364;28;19926;-74
2022/04/20 12:44:38;;;;;;;;;;;;;;;15.57;23.40;97548.69;4970059;28;20364;-74
2022/04/20 12:47:25;;;;;;;;;;;;;;;15.53;24.57;97554.06;4947593;28;20399;-73
2022/04/20 12:50:14;;;;;;;;;;;;;;;15.78;25.04;97546.53;4959963;28;20029;-73
2022/04/20 12:52:49;;;;;;;;;;;;;;;15.55;24.08;97535.34;4949403;28;19926;-74
2022/04/20 12:55:17;;;;;;;;;;;;;;;15.64;25.25;97538.72;4953395;28;19926;-73
2022/04/20 13:03:30;;;;;;;;;;;;;;;15.71;24.13;97533.44;4954926;28;20300;-74
2022/04/20 13:05:59;;;;;;;;;;;;;;;15.70;24.59;97526.34;4971887;28;20018;-74
2022/04/20 13:08:27;;;;;;;;;;;;;;;15.91;24.13;97522.56;4972076;28;19934;-73
2022/04/20 13:10:58;;;;;;;;;;;;;;;15.92;25.22;97532.34;4974663;28;19930;-74
2022/04/20 13:13:26;;;;;;;;;;;;;;;15.96;24.79;97519.53;4971338;28;19970;-74
2022/04/20 13:15:59;;;;;;;;;;;;;;;15.96;23.86;97525.00;4972468;28;19926;-74
2022/04/20 13:18:27;;;;;;;;;;;;;;;15.83;22.13;97526.28;4987701;28;19930;-74
2022/04/20 13:20:56;;;;;;;;;;;;;;;15.59;22.40;97519.00;4971163;28;19930;-73
2022/04/20 13:29:10;;;;;;;;;;;;;;;15.42;22.52;97509.19;4972272;28;19926;-74
2022/04/20 13:31:38;;;;;;;;;;;;;;;15.68;21.03;97509.50;4969056;28;19926;-74
2022/04/20 13:34:06;;;;;;;;;;;;;;;15.80;21.44;97505.06;4953782;28;20021;-74
2022/04/20 13:36:34;;;;;;;;;;;;;;;15.67;21.22;97507.13;4971785;28;19933;-74
2022/04/20 13:39:03;;;;;;;;;;;;;;;15.67;21.05;97509.88;4972502;28;19934;-73
2022/04/20 13:41:30;;;;;;;;;;;;;;;15.38;20.87;97502.84;4952299;29;20376;-74
2022/04/20 13:43:59;;;;;;;;;;;;;;;15.22;21.35;97491.88;4970374;28;20025;-74
2022/04/20 13:46:27;;;;;;;;;;;;;;;15.26;21.49;97500.19;4967898;28;19926;-74
2022/04/20 13:48:57;;;;;;;;;;;;;;;15.33;22.65;97495.69;4954994;28;20020;-74
2022/04/20 13:51:25;;;;;;;;;;;;;;;15.43;21.10;97494.38;4967959;28;19926;-73
2022/04/20 13:53:53;;;;;;;;;;;;;;;15.26;21.74;97494.72;4983718;28;19926;-74
2022/04/20 13:56:22;;;;;;;;;;;;;;;15.19;20.77;97489.84;4972055;28;20009;-74
2022/04/20 13:58:50;;;;;;;;;;;;;;;15.30;21.55;97495.59;4955644;28;20383;-73
2022/04/20 14:01:20;;;;;;;;;;;;;;;15.28;20.80;97484.19;4970165;28;20333;-74
2022/04/20 14:03:48;;;;;;;;;;;;;;;15.20;19.88;97485.97;4954201;28;19933;-74
2022/04/20 14:06:17;;;;;;;;;;;;;;;15.10;20.38;97486.50;4969375;28;19993;-74
2022/04/20 14:08:44;;;;;;;;;;;;;;;15.24;19.85;97499.75;4966663;28;19971;-74
2022/04/20 14:11:12;;;;;;;;;;;;;;;15.11;20.12;97491.59;4941484;28;19977;-74
2022/04/20 14:13:42;;;;;;;;;;;;;;;15.26;20.42;97489.25;4963783;28;19966;-74
2022/04/20 14:16:10;;;;;;;;;;;;;;;15.15;20.32;97478.81;4941428;28;20049;-73
2022/04/20 14:18:39;;;;;;;;;;;;;;;15.19;20.60;97479.72;4964039;28;19935;-74
2022/04/20 14:21:13;;;;;;;;;;;;;;;15.40;20.05;97481.41;4952291;28;19927;-73
2022/04/20 14:24:06;;;;;;;;;;;;;;;15.31;19.80;97481.56;4935064;28;19930;-73
2022/04/20 14:32:13;;;;;;;;;;;;;;;15.51;21.05;97482.44;4959563;28;19926;-75
2022/04/20 14:34:42;;;;;;;;;;;;;;;15.90;20.47;97482.63;4950727;28;19926;-74
2022/04/20 14:37:11;;;;;;;;;;;;;;;16.06;20.13;97479.84;4970677;28;19926;-74
2022/04/20 14:39:39;;;;;;;;;;;;;;;16.24;21.10;97476.34;4954988;28;19945;-74
2022/04/20 14:42:08;;;;;;;;;;;;;;;16.43;20.58;97474.75;4932495;28;19927;-73
2022/04/20 14:44:37;;;;;;;;;;;;;;;16.46;19.88;97458.41;4960004;28;19927;-73
2022/04/20 14:47:06;;;;;;;;;;;;;;;16.71;20.28;97469.88;4964987;28;19933;-74
2022/04/20 14:52:28;;;;;;;;;;;;;;;16.62;20.41;97466.56;4935397;28;19925;-73
2022/04/20 14:54:56;;;;;;;;;;;;;;;16.76;20.35;97460.56;4952886;28;19934;-72
2022/04/20 14:57:44;;;;;;;;;;;;;;;16.22;21.00;97464.94;4954207;28;19937;-73
2022/04/20 15:00:15;;;;;;;;;;;;;;;15.94;20.79;97467.84;4968008;28;19942;-73
2022/04/20 15:02:44;;;;;;;;;;;;;;;16.09;20.71;97454.47;4960677;28;19926;-72
2022/04/20 15:05:12;;;;;;;;;;;;;;;16.32;20.77;97460.84;4970803;28;20234;-75
2022/04/20 15:07:40;;;;;;;;;;;;;;;16.63;21.73;97451.69;4970911;28;20376;-72
2022/04/20 15:10:09;;;;;;;;;;;;;;;16.56;22.38;97467.97;4988361;28;19934;-72
2022/04/20 15:12:40;;;;;;;;;;;;;;;16.38;21.77;97455.88;4960020;28;19926;-72
2022/04/20 15:15:08;;;;;;;;;;;;;;;16.42;23.65;97454.78;4967601;28;19973;-73
2022/04/20 15:17:38;;;;;;;;;;;;;;;16.27;22.55;97454.84;4972772;28;20385;-73
2022/04/20 15:20:07;;;;;;;;;;;;;;;16.27;22.93;97450.16;4975685;28;19950;-73
2022/04/20 15:26:18;;;;;;;;;;;;;;;16.17;23.42;97445.25;4980051;28;19953;-75
2022/04/20 15:28:46;;;;;;;;;;;;;;;16.02;23.65;97446.88;4973933;28;19934;-71
2022/04/20 15:31:15;;;;;;;;;;;;;;;16.00;23.82;97445.66;4985949;28;19984;-73
2022/04/20 15:33:45;;;;;;;;;;;;;;;15.72;24.50;97454.81;4985450;28;20401;-80
2022/04/20 15:36:28;;;;;;;;;;;;;;;15.83;24.62;97450.38;4963992;28;19926;-74
2022/04/20 15:38:57;;;;;;;;;;;;;;;15.42;25.05;97459.94;4972009;28;20059;-76
2022/04/20 15:41:51;;;;;;;;;;;;;;;15.31;25.13;97456.13;4938106;28;19926;-74
2022/04/20 15:44:24;;;;;;;;;;;;;;;15.38;25.89;97465.31;4958780;28;19940;-76
2022/04/20 15:46:52;;;;;;;;;;;;;;;15.29;24.51;97452.97;4985097;28;20273;-75
2022/04/20 15:49:23;;;;;;;;;;;;;;;15.32;24.60;97450.31;4973090;28;19982;-76
2022/04/20 15:51:52;;;;;;;;;;;;;;;15.33;25.65;97456.56;4955963;28;19926;-76
2022/04/20 16:00:17;;;;;;;;;;;;;;;14.31;31.45;97464.34;4972340;28;20016;-75
2022/04/20 16:02:45;;;;;;;;;;;;;;;14.21;31.83;97467.56;4953746;28;20273;-75
2022/04/20 16:05:16;;;;;;;;;;;;;;;14.12;32.23;97468.53;4971143;28;19934;-75
2022/04/20 16:07:44;;;;;;;;;;;;;;;14.12;33.19;97468.53;4952931;28;19952;-73
2022/04/20 16:10:13;;;;;;;;;;;;;;;14.18;32.22;97473.75;4953687;28;19930;-74
2022/04/20 16:12:43;;;;;;;;;;;;;;;14.08;32.15;97470.34;4951487;28;19933;-73
2022/04/20 16:15:13;;;;;;;;;;;;;;;14.14;32.09;97476.34;4966543;28;20010;-74
2022/04/20 16:17:42;;;;;;;;;;;;;;;14.18;32.24;97482.72;4947652;28;19957;-75
2022/04/20 16:20:11;;;;;;;;;;;;;;;14.29;32.04;97475.63;4958241;28;20274;-77
2022/04/20 16:22:43;;;;;;;;;;;;;;;14.28;31.99;97479.53;4960103;28;19973;-79
2022/04/20 16:28:06;;;;;;;;;;;;;;;14.13;32.23;97491.16;4973483;28;20393;-77
2022/04/20 16:30:35;;;;;;;;;;;;;;;14.12;32.03;97481.38;4939765;28;19938;-76
2022/04/20 16:33:05;;;;;;;;;;;;;;;14.12;32.24;97476.72;4973192;28;19934;-78
2022/04/20 16:35:35;;;;;;;;;;;;;;;14.08;32.19;97481.25;4977698;28;19926;-78
2022/04/20 16:38:06;;;;;;;;;;;;;;;14.11;32.27;97472.41;4970475;28;19937;-78
2022/04/20 16:40:34;;;;;;;;;;;;;;;14.04;32.50;97474.88;4973790;28;19937;-78
2022/04/20 16:43:27;;;;;;;;;;;;;;;14.11;32.25;97477.84;4957381;28;19926;-79
2022/04/20 16:45:56;;;;;;;;;;;;;;;13.81;32.61;97482.78;4980265;28;19926;-77
2022/04/20 16:48:24;;;;;;;;;;;;;;;13.73;32.88;97480.97;4966147;28;19937;-77
2022/04/20 16:50:52;;;;;;;;;;;;;;;13.71;32.98;97471.53;4953051;28;20295;-77
2022/04/20 16:53:22;;;;;;;;;;;;;;;13.78;32.63;97479.94;4957875;28;19926;-78
2022/04/20 16:55:51;;;;;;;;;;;;;;;13.71;33.22;97480.50;4965550;28;19996;-77
2022/04/20 16:58:19;;;;;;;;;;;;;;;13.73;33.07;97478.22;4966530;28;19927;-73
2022/04/20 17:00:48;;;;;;;;;;;;;;;13.70;32.76;97480.88;4953813;28;19931;-72
2022/04/20 17:03:16;;;;;;;;;;;;;;;13.56;33.18;97482.00;4971984;28;19933;-72
2022/04/20 17:05:47;;;;;;;;;;;;;;;13.42;33.40;97478.00;4958846;28;20020;-72
2022/04/20 17:08:14;;;;;;;;;;;;;;;13.41;34.40;97479.94;4956207;28;20012;-72
2022/04/20 17:10:43;;;;;;;;;;;;;;;13.41;33.85;97479.94;4980178;28;19926;-73
2022/04/20 17:13:11;;;;;;;;;;;;;;;13.26;34.04;97477.88;4979377;28;20016;-74
2022/04/20 17:15:39;;;;;;;;;;;;;;;13.31;34.25;97485.81;4956742;28;19926;-74
2022/04/20 17:18:07;;;;;;;;;;;;;;;13.32;34.12;97482.00;4956335;28;19973;-73
2022/04/20 17:26:37;;;;;;;;;;;;;;;13.18;35.04;97489.66;4953687;28;19930;-77
2022/04/20 17:29:08;;;;;;;;;;;;;;;13.06;35.18;97488.50;4972891;28;19930;-77
2022/04/20 17:31:36;;;;;;;;;;;;;;;13.05;35.15;97492.38;4968462;28;19933;-76
2022/04/20 17:34:09;;;;;;;;;;;;;;;12.97;35.43;97493.25;4953618;28;19989;-77
2022/04/20 17:36:39;;;;;;;;;;;;;;;12.82;35.99;97502.84;4956721;28;19930;-73
2022/04/20 17:39:09;;;;;;;;;;;;;;;12.82;36.30;97502.03;4973882;28;19986;-76
2022/04/20 17:41:39;;;;;;;;;;;;;;;12.76;36.64;97497.94;4955159;28;19933;-77
2022/04/20 17:44:11;;;;;;;;;;;;;;;12.72;36.90;97494.28;4940779;28;20012;-77
2022/04/20 17:46:39;;;;;;;;;;;;;;;12.50;37.71;97507.13;4987124;28;19926;-77
2022/04/20 17:49:07;;;;;;;;;;;;;;;12.37;38.28;97502.78;4988385;28;19925;-77
2022/04/20 17:51:36;;;;;;;;;;;;;;;12.38;38.53;97511.75;4954966;28;19966;-77
2022/04/20 17:59:51;;;;;;;;;;;;;;;12.03;39.54;97514.69;4961270;28;19926;-78
2022/04/20 18:02:19;;;;;;;;;;;;;;;11.96;40.05;97528.84;4974213;28;20010;-77
2022/04/20 18:04:47;;;;;;;;;;;;;;;11.82;40.66;97530.19;4953931;28;19926;-77
2022/04/20 18:07:16;;;;;;;;;;;;;;;11.87;40.68;97527.28;4969806;28;19958;-77
2022/04/20 18:09:46;;;;;;;;;;;;;;;11.68;41.09;97536.66;4986124;28;19980;-77
2022/04/20 18:12:17;;;;;;;;;;;;;;;11.59;41.36;97529.63;4960407;28;19926;-77
2022/04/20 18:14:45;;;;;;;;;;;;;;;11.41;41.93;97528.91;4965419;28;19930;-77
2022/04/20 18:17:15;;;;;;;;;;;;;;;11.52;41.86;97533.66;4974145;28;19998;-77
2022/04/20 18:19:43;;;;;;;;;;;;;;;11.46;42.11;97540.41;4959555;28;19933;-76
2022/04/20 18:22:37;;;;;;;;;;;;;;;11.51;42.32;97542.97;4958281;28;19932;-77
2022/04/20 18:25:31;;;;;;;;;;;;;;;11.38;42.50;97549.41;4978956;28;19973;-77
2022/04/20 18:28:07;;;;;;;;;;;;;;;11.48;42.68;97543.59;4953897;28;19926;-77
2022/04/20 18:30:37;;;;;;;;;;;;;;;11.31;43.14;97546.38;4976652;28;19926;-77
2022/04/20 18:33:07;;;;;;;;;;;;;;;11.35;43.14;97549.25;4971648;28;19926;-77
2022/04/20 18:35:35;;;;;;;;;;;;;;;11.24;43.48;97546.09;4968954;28;20021;-77
2022/04/20 18:40:57;;;;;;;;;;;;;;;11.46;43.29;97556.75;4960356;28;20029;-77
2022/04/20 18:43:27;;;;;;;;;;;;;;;11.23;43.90;97563.50;4957809;28;19929;-77
2022/04/20 18:45:56;;;;;;;;;;;;;;;11.41;43.73;97565.06;4969803;28;19926;-77
2022/04/20 18:48:24;;;;;;;;;;;;;;;11.46;43.59;97573.06;4967106;28;19932;-77
2022/04/20 18:50:53;;;;;;;;;;;;;;;11.30;43.91;97576.63;4955137;28;19958;-77
2022/04/20 18:58:57;;;;;;;;;;;;;;;11.03;44.91;97581.31;4980752;28;19930;-77
2022/04/20 19:01:25;;;;;;;;;;;;;;;11.10;45.06;97580.81;4942745;28;19930;-77
2022/04/20 19:03:54;;;;;;;;;;;;;;;11.00;45.30;97595.53;4941464;28;19957;-77
2022/04/20 19:06:22;;;;;;;;;;;;;;;10.99;45.43;97588.53;4968622;28;20282;-77
2022/04/20 19:08:50;;;;;;;;;;;;;;;10.95;45.54;97591.06;4948118;28;19926;-76
2022/04/20 19:11:19;;;;;;;;;;;;;;;10.94;45.75;97585.97;4971587;28;19933;-77
2022/04/20 19:13:47;;;;;;;;;;;;;;;10.67;46.26;97579.75;4939162;28;19926;-77
2022/04/20 19:16:16;;;;;;;;;;;;;;;10.78;46.31;97585.66;4948695;28;19937;-77
2022/04/20 19:18:45;;;;;;;;;;;;;;;10.87;46.31;97582.94;4954537;28;19937;-76
2022/04/20 19:21:15;;;;;;;;;;;;;;;10.80;46.14;97593.47;4954135;28;20296;-77
2022/04/20 19:24:08;;;;;;;;;;;;;;;10.80;46.33;97588.03;4949920;28;19926;-77
2022/04/20 19:26:36;;;;;;;;;;;;;;;10.89;46.12;97597.78;4949562;28;19930;-77
2022/04/20 19:29:04;;;;;;;;;;;;;;;10.81;46.32;97598.59;4954564;28;19934;-77
2022/04/20 19:31:34;;;;;;;;;;;;;;;10.60;46.65;97594.91;4953942;28;19926;-76
2022/04/20 19:34:27;;;;;;;;;;;;;;;10.51;46.90;97597.63;4953423;28;19926;-77
2022/04/20 19:36:56;;;;;;;;;;;;;;;10.63;46.63;97602.44;4966807;28;20432;-77
2022/04/20 19:39:24;;;;;;;;;;;;;;;10.45;47.12;97599.69;4949117;28;19926;-74
2022/04/20 19:41:53;;;;;;;;;;;;;;;10.64;46.63;97602.09;4973901;28;19962;-74
2022/04/20 19:44:21;;;;;;;;;;;;;;;10.68;46.66;97613.13;4947627;28;20020;-77
2022/04/20 19:46:51;;;;;;;;;;;;;;;10.59;46.82;97609.59;4969281;28;19933;-76
2022/04/20 19:49:26;;;;;;;;;;;;;;;10.63;46.94;97602.44;4951993;29;19926;-76
2022/04/20 19:51:55;;;;;;;;;;;;;;;10.69;46.53;97609.28;4951497;28;20021;-76
2022/04/20 19:54:23;;;;;;;;;;;;;;;10.52;46.87;97604.66;4952098;28;19934;-77
2022/04/20 19:56:52;;;;;;;;;;;;;;;10.55;46.92;97597.81;4950879;28;20376;-76